sensor_id;sensor_type;location;lat;lon;timestamp;pressure;altitude;pressure_sealevel;temperature;humidity
58243;BME280;50118;53.232;8.252;2023-04-07T00:01:17;101440.66;;;3.63;100.00
58243;BME280;50118;53.232;8.252;2023-04-07T00:03:43;101431.53;;;3.52;100.00
58243;BME280;50118;53.232;8.252;2023-04-07T00:06:08;101435.19;;;3.50;100.00
58243;BME280;50118;53.232;8.252;2023-04-07T00:08:34;101434.81;;;3.40;100.00
58243;BME280;50118;53.232;8.252;2023-04-07T00:10:59;101427.19;;;3.35;100.00
58243;BME280;50118;53.232;8.252;2023-04-07T00:13:25;101430.28;;;3.26;100.00
58243;BME280;50118;53.232;8.252;2023-04-07T00:15:51;101434.88;;;3.23;100.00
58243;BME280;50118;53.232;8.252;2023-04-07T00:18:16;101424.91;;;3.12;100.00
58243;BME280;50118;53.232;8.252;2023-04-07T00:20:41;101433.88;;;3.08;100.00
58243;BME280;50118;53.232;8.252;2023-04-07T00:23:07;101429.09;;;2.98;100.00
58243;BME280;50118;53.232;8.252;2023-04-07T00:25:32;101429.56;;;2.89;100.00
58243;BME280;50118;53.232;8.252;2023-04-07T00:27:58;101428.19;;;2.82;100.00
58243;BME280;50118;53.232;8.252;2023-04-07T00:30:23;101428.50;;;2.76;100.00
58243;BME280;50118;53.232;8.252;2023-04-07T00:32:48;101432.13;;;2.73;100.00
58243;BME280;50118;53.232;8.252;2023-04-07T00:35:15;101430.34;;;2.74;100.00
58243;BME280;50118;53.232;8.252;2023-04-07T00:37:41;101433.91;;;2.73;100.00
58243;BME280;50118;53.232;8.252;2023-04-07T00:40:07;101428.97;;;2.67;100.00
58243;BME280;50118;53.232;8.252;2023-04-07T00:42:32;101436.22;;;2.61;100.00
58243;BME280;50118;53.232;8.252;2023-04-07T00:44:58;101434.38;;;2.64;100.00
58243;BME280;50118;53.232;8.252;2023-04-07T00:47:24;101430.97;;;2.61;100.00
58243;BME280;50118;53.232;8.252;2023-04-07T00:49:49;101426.00;;;2.55;100.00
58243;BME280;50118;53.232;8.252;2023-04-07T00:52:16;101429.78;;;2.50;100.00
58243;BME280;50118;53.232;8.252;2023-04-07T00:54:43;101433.44;;;2.47;100.00
58243;BME280;50118;53.232;8.252;2023-04-07T00:57:10;101424.47;;;2.51;100.00
58243;BME280;50118;53.232;8.252;2023-04-07T00:59:35;101418.97;;;2.56;100.00
58243;BME280;50118;53.232;8.252;2023-04-07T01:02:07;101423.16;;;2.60;100.00
58243;BME280;50118;53.232;8.252;2023-04-07T01:04:50;101418.59;;;2.64;100.00
58243;BME280;50118;53.232;8.252;2023-04-07T01:07:23;101428.81;;;2.70;100.00
58243;BME280;50118;53.232;8.252;2023-04-07T01:09:57;101424.72;;;2.64;100.00
58243;BME280;50118;53.232;8.252;2023-04-07T01:12:36;101417.59;;;2.66;100.00
58243;BME280;50118;53.232;8.252;2023-04-07T01:15:08;101432.06;;;2.75;100.00
58243;BME280;50118;53.232;8.252;2023-04-07T01:17:36;101426.31;;;2.84;100.00
58243;BME280;50118;53.232;8.252;2023-04-07T01:20:04;101435.53;;;2.93;100.00
58243;BME280;50118;53.232;8.252;2023-04-07T01:22:40;101424.72;;;3.15;100.00
58243;BME280;50118;53.232;8.252;2023-04-07T01:25:34;101436.06;;;3.33;100.00
58243;BME280;50118;53.232;8.252;2023-04-07T01:30:52;101422.69;;;3.38;100.00
58243;BME280;50118;53.232;8.252;2023-04-07T01:33:21;101431.19;;;3.43;100.00
58243;BME280;50118;53.232;8.252;2023-04-07T01:35:48;101428.19;;;3.49;100.00
58243;BME280;50118;53.232;8.252;2023-04-07T01:38:16;101435.03;;;3.53;100.00
58243;BME280;50118;53.232;8.252;2023-04-07T01:40:42;101428.91;;;3.68;100.00
58243;BME280;50118;53.232;8.252;2023-04-07T01:43:08;101429.94;;;3.82;97.54
58243;BME280;50118;53.232;8.252;2023-04-07T01:45:36;101431.53;;;3.84;95.79
58243;BME280;50118;53.232;8.252;2023-04-07T01:48:04;101425.88;;;3.92;95.47
58243;BME280;50118;53.232;8.252;2023-04-07T01:50:30;101431.19;;;4.06;93.77
58243;BME280;50118;53.232;8.252;2023-04-07T01:52:56;101429.16;;;4.11;92.56
58243;BME280;50118;53.232;8.252;2023-04-07T01:55:21;101434.00;;;4.19;92.23
58243;BME280;50118;53.232;8.252;2023-04-07T01:57:47;101425.50;;;4.14;91.33
58243;BME280;50118;53.232;8.252;2023-04-07T02:00:13;101428.91;;;4.16;91.92
58243;BME280;50118;53.232;8.252;2023-04-07T02:02:42;101437.50;;;4.20;91.70
58243;BME280;50118;53.232;8.252;2023-04-07T02:05:11;101429.75;;;4.17;90.94
58243;BME280;50118;53.232;8.252;2023-04-07T02:10:14;101429.75;;;4.17;91.36
58243;BME280;50118;53.232;8.252;2023-04-07T02:12:41;101426.34;;;4.15;90.66
58243;BME280;50118;53.232;8.252;2023-04-07T02:15:11;101424.63;;;4.14;91.33
58243;BME280;50118;53.232;8.252;2023-04-07T02:17:39;101424.84;;;4.10;91.54
58243;BME280;50118;53.232;8.252;2023-04-07T02:20:07;101420.66;;;4.06;92.07
58243;BME280;50118;53.232;8.252;2023-04-07T02:22:33;101422.19;;;4.10;91.75
58243;BME280;50118;53.232;8.252;2023-04-07T02:25:00;101421.50;;;4.07;91.84
58243;BME280;50118;53.232;8.252;2023-04-07T02:27:25;101422.28;;;4.09;92.71
58243;BME280;50118;53.232;8.252;2023-04-07T02:29:50;101427.06;;;4.02;92.29
58243;BME280;50118;53.232;8.252;2023-04-07T02:32:16;101427.88;;;4.03;92.57
58243;BME280;50118;53.232;8.252;2023-04-07T02:34:42;101430.97;;;3.95;93.53
58243;BME280;50118;53.232;8.252;2023-04-07T02:37:07;101431.22;;;3.90;93.38
58243;BME280;50118;53.232;8.252;2023-04-07T02:39:33;101433.94;;;3.89;93.81
58243;BME280;50118;53.232;8.252;2023-04-07T02:41:58;101438.78;;;3.81;94.19
58243;BME280;50118;53.232;8.252;2023-04-07T02:44:23;101436.06;;;3.82;94.12
58243;BME280;50118;53.232;8.252;2023-04-07T02:46:49;101446.00;;;3.93;93.91
58243;BME280;50118;53.232;8.252;2023-04-07T02:49:14;101434.88;;;3.88;93.34
58243;BME280;50118;53.232;8.252;2023-04-07T02:51:40;101441.00;;;3.88;93.66
58243;BME280;50118;53.232;8.252;2023-04-07T02:54:05;101438.78;;;3.81;93.45
58243;BME280;50118;53.232;8.252;2023-04-07T02:56:31;101436.31;;;3.78;93.89
58243;BME280;50118;53.232;8.252;2023-04-07T02:58:56;101429.94;;;3.82;92.65
58243;BME280;50118;53.232;8.252;2023-04-07T03:01:22;101434.25;;;3.83;93.09
58243;BME280;50118;53.232;8.252;2023-04-07T03:03:47;101431.13;;;3.92;92.13
58243;BME280;50118;53.232;8.252;2023-04-07T03:06:13;101428.41;;;3.93;92.65
58243;BME280;50118;53.232;8.252;2023-04-07T03:08:38;101440.22;;;4.02;92.60
58243;BME280;50118;53.232;8.252;2023-04-07T03:11:04;101433.25;;;4.01;92.81
58243;BME280;50118;53.232;8.252;2023-04-07T03:13:29;101434.19;;;4.00;92.49
58243;BME280;50118;53.232;8.252;2023-04-07T03:15:56;101441.16;;;4.01;91.85
58243;BME280;50118;53.232;8.252;2023-04-07T03:18:22;101441.00;;;4.04;90.83
58243;BME280;50118;53.232;8.252;2023-04-07T03:20:48;101435.72;;;4.04;90.26
58243;BME280;50118;53.232;8.252;2023-04-07T03:23:13;101438.78;;;4.13;89.32
58243;BME280;50118;53.232;8.252;2023-04-07T03:25:39;101431.78;;;4.11;89.17
58243;BME280;50118;53.232;8.252;2023-04-07T03:28:04;101438.09;;;4.09;89.55
58243;BME280;50118;53.232;8.252;2023-04-07T03:30:30;101433.84;;;4.06;89.18
58243;BME280;50118;53.232;8.252;2023-04-07T03:32:56;101431.97;;;4.08;89.29
58243;BME280;50118;53.232;8.252;2023-04-07T03:35:21;101439.47;;;4.00;89.60
58243;BME280;50118;53.232;8.252;2023-04-07T03:37:47;101434.69;;;3.91;91.10
58243;BME280;50118;53.232;8.252;2023-04-07T03:40:12;101436.72;;;3.86;91.25
58243;BME280;50118;53.232;8.252;2023-04-07T03:42:38;101438.53;;;3.85;90.39
58243;BME280;50118;53.232;8.252;2023-04-07T03:45:04;101438.44;;;3.87;90.17
58243;BME280;50118;53.232;8.252;2023-04-07T03:47:30;101438.34;;;3.72;90.56
58243;BME280;50118;53.232;8.252;2023-04-07T03:49:55;101437.91;;;3.64;91.46
58243;BME280;50118;53.232;8.252;2023-04-07T03:52:21;101429.50;;;3.58;90.78
58243;BME280;50118;53.232;8.252;2023-04-07T03:54:46;101440.13;;;3.56;91.43
58243;BME280;50118;53.232;8.252;2023-04-07T03:57:12;101430.75;;;3.50;91.04
58243;BME280;50118;53.232;8.252;2023-04-07T03:59:37;101438.56;;;3.52;91.04
58243;BME280;50118;53.232;8.252;2023-04-07T04:02:03;101442.31;;;3.48;90.88
58243;BME280;50118;53.232;8.252;2023-04-07T04:04:28;101442.47;;;3.45;91.44
58243;BME280;50118;53.232;8.252;2023-04-07T04:06:53;101440.22;;;3.37;92.57
58243;BME280;50118;53.232;8.252;2023-04-07T04:09:19;101441.09;;;3.38;91.44
58243;BME280;50118;53.232;8.252;2023-04-07T04:11:45;101453.81;;;3.29;92.44
58243;BME280;50118;53.232;8.252;2023-04-07T04:14:10;101452.75;;;3.16;93.63
58243;BME280;50118;53.232;8.252;2023-04-07T04:16:36;101447.19;;;3.05;93.96
58243;BME280;50118;53.232;8.252;2023-04-07T04:19:01;101445.19;;;2.92;95.04
58243;BME280;50118;53.232;8.252;2023-04-07T04:21:27;101445.28;;;2.91;94.49
58243;BME280;50118;53.232;8.252;2023-04-07T04:23:52;101455.94;;;2.88;94.75
58243;BME280;50118;53.232;8.252;2023-04-07T04:26:18;101465.00;;;2.82;94.30
58243;BME280;50118;53.232;8.252;2023-04-07T04:28:44;101466.25;;;2.75;95.00
58243;BME280;50118;53.232;8.252;2023-04-07T04:31:10;101464.78;;;2.69;94.61
58243;BME280;50118;53.232;8.252;2023-04-07T04:33:35;101467.66;;;2.65;94.69
58243;BME280;50118;53.232;8.252;2023-04-07T04:36:00;101468.34;;;2.68;93.73
58243;BME280;50118;53.232;8.252;2023-04-07T04:38:26;101464.59;;;2.55;95.00
58243;BME280;50118;53.232;8.252;2023-04-07T04:40:51;101469.09;;;2.53;94.50
58243;BME280;50118;53.232;8.252;2023-04-07T04:43:17;101475.19;;;2.53;94.32
58243;BME280;50118;53.232;8.252;2023-04-07T04:45:42;101473.34;;;2.55;94.20
58243;BME280;50118;53.232;8.252;2023-04-07T04:48:08;101470.56;;;2.41;94.56
58243;BME280;50118;53.232;8.252;2023-04-07T04:50:35;101478.28;;;2.44;95.20
58243;BME280;50118;53.232;8.252;2023-04-07T04:53:00;101474.19;;;2.38;95.04
58243;BME280;50118;53.232;8.252;2023-04-07T04:55:26;101476.66;;;2.41;95.87
58243;BME280;50118;53.232;8.252;2023-04-07T04:57:52;101477.94;;;2.33;96.05
58243;BME280;50118;53.232;8.252;2023-04-07T05:00:17;101491.47;;;2.25;96.63
58243;BME280;50118;53.232;8.252;2023-04-07T05:02:43;101480.69;;;2.12;97.79
58243;BME280;50118;53.232;8.252;2023-04-07T05:05:08;101491.97;;;2.14;98.19
58243;BME280;50118;53.232;8.252;2023-04-07T05:07:34;101500.03;;;2.11;97.80
58243;BME280;50118;53.232;8.252;2023-04-07T05:09:59;101494.78;;;2.11;98.22
58243;BME280;50118;53.232;8.252;2023-04-07T05:12:25;101506.69;;;2.18;98.72
58243;BME280;50118;53.232;8.252;2023-04-07T05:14:51;101507.59;;;2.17;97.77
58243;BME280;50118;53.232;8.252;2023-04-07T05:17:16;101513.50;;;2.22;98.17
58243;BME280;50118;53.232;8.252;2023-04-07T05:19:42;101516.75;;;2.28;97.77
58243;BME280;50118;53.232;8.252;2023-04-07T05:22:07;101519.59;;;2.42;97.61
58243;BME280;50118;53.232;8.252;2023-04-07T05:24:32;101510.91;;;2.40;97.01
58243;BME280;50118;53.232;8.252;2023-04-07T05:26:58;101513.47;;;2.41;96.36
58243;BME280;50118;53.232;8.252;2023-04-07T05:29:23;101510.16;;;2.55;96.58
58243;BME280;50118;53.232;8.252;2023-04-07T05:31:49;101515.00;;;2.82;95.00
58243;BME280;50118;53.232;8.252;2023-04-07T05:34:14;101528.72;;;2.89;93.48
58243;BME280;50118;53.232;8.252;2023-04-07T05:36:39;101530.81;;;2.99;93.72
58243;BME280;50118;53.232;8.252;2023-04-07T05:39:05;101528.56;;;3.09;92.82
58243;BME280;50118;53.232;8.252;2023-04-07T05:41:31;101523.38;;;3.25;93.04
58243;BME280;50118;53.232;8.252;2023-04-07T05:43:56;101532.25;;;3.40;90.96
58243;BME280;50118;53.232;8.252;2023-04-07T05:46:21;101530.50;;;3.41;89.21
58243;BME280;50118;53.232;8.252;2023-04-07T05:48:47;101529.03;;;3.68;88.22
58243;BME280;50118;53.232;8.252;2023-04-07T05:51:12;101523.78;;;3.84;84.38
58243;BME280;50118;53.232;8.252;2023-04-07T05:53:37;101532.84;;;4.28;82.68
58243;BME280;50118;53.232;8.252;2023-04-07T05:56:03;101535.84;;;4.38;81.53
58243;BME280;50118;53.232;8.252;2023-04-07T05:58:28;101535.41;;;4.45;81.86
58243;BME280;50118;53.232;8.252;2023-04-07T06:00:54;101545.06;;;5.07;79.44
58243;BME280;50118;53.232;8.252;2023-04-07T06:03:19;101547.53;;;5.10;76.86
58243;BME280;50118;53.232;8.252;2023-04-07T06:05:46;101548.00;;;5.61;76.18
58243;BME280;50118;53.232;8.252;2023-04-07T06:08:11;101548.44;;;6.40;71.50
58243;BME280;50118;53.232;8.252;2023-04-07T06:10:36;101552.53;;;6.31;70.50
58243;BME280;50118;53.232;8.252;2023-04-07T06:13:02;101560.50;;;6.86;66.68
58243;BME280;50118;53.232;8.252;2023-04-07T06:15:27;101552.19;;;7.05;64.66
58243;BME280;50118;53.232;8.252;2023-04-07T06:17:52;101558.19;;;8.48;61.97
58243;BME280;50118;53.232;8.252;2023-04-07T06:20:18;101558.28;;;9.30;58.34
58243;BME280;50118;53.232;8.252;2023-04-07T06:22:46;101561.59;;;10.58;54.20
58243;BME280;50118;53.232;8.252;2023-04-07T06:25:11;101561.03;;;10.09;52.10
58243;BME280;50118;53.232;8.252;2023-04-07T06:27:37;101564.25;;;10.58;51.92
58243;BME280;50118;53.232;8.252;2023-04-07T06:30:02;101571.91;;;11.16;50.02
58243;BME280;50118;53.232;8.252;2023-04-07T06:32:28;101562.63;;;12.05;46.93
58243;BME280;50118;53.232;8.252;2023-04-07T06:34:53;101567.97;;;12.55;45.34
58243;BME280;50118;53.232;8.252;2023-04-07T06:37:19;101562.94;;;11.59;47.70
58243;BME280;50118;53.232;8.252;2023-04-07T06:39:44;101577.72;;;10.00;50.28
58243;BME280;50118;53.232;8.252;2023-04-07T06:42:10;101585.34;;;10.94;50.13
58243;BME280;50118;53.232;8.252;2023-04-07T06:44:35;101591.56;;;11.15;48.51
58243;BME280;50118;53.232;8.252;2023-04-07T06:47:00;101589.34;;;10.56;47.90
58243;BME280;50118;53.232;8.252;2023-04-07T06:49:26;101585.25;;;10.84;48.36
58243;BME280;50118;53.232;8.252;2023-04-07T06:51:51;101590.81;;;12.28;45.46
58243;BME280;50118;53.232;8.252;2023-04-07T06:54:17;101597.97;;;12.78;44.91
58243;BME280;50118;53.232;8.252;2023-04-07T06:56:42;101595.13;;;12.70;44.45
58243;BME280;50118;53.232;8.252;2023-04-07T06:59:09;101594.56;;;11.43;47.04
58243;BME280;50118;53.232;8.252;2023-04-07T07:01:35;101599.63;;;12.50;43.74
58243;BME280;50118;53.232;8.252;2023-04-07T07:04:02;101608.94;;;13.63;41.71
58243;BME280;50118;53.232;8.252;2023-04-07T07:06:27;101599.06;;;13.73;42.48
58243;BME280;50118;53.232;8.252;2023-04-07T07:08:53;101612.03;;;14.43;39.99
58243;BME280;50118;53.232;8.252;2023-04-07T07:11:19;101615.56;;;14.16;40.11
58243;BME280;50118;53.232;8.252;2023-04-07T07:13:45;101614.88;;;14.42;39.68
58243;BME280;50118;53.232;8.252;2023-04-07T07:16:10;101606.94;;;13.85;40.54
58243;BME280;50118;53.232;8.252;2023-04-07T07:18:39;101606.38;;;14.46;39.68
58243;BME280;50118;53.232;8.252;2023-04-07T07:21:04;101617.50;;;14.24;38.67
58243;BME280;50118;53.232;8.252;2023-04-07T07:23:33;101622.56;;;11.70;43.78
58243;BME280;50118;53.232;8.252;2023-04-07T07:25:58;101620.63;;;11.18;47.05
58243;BME280;50118;53.232;8.252;2023-04-07T07:28:24;101631.53;;;11.48;46.38
58243;BME280;50118;53.232;8.252;2023-04-07T07:30:50;101637.59;;;12.54;44.03
58243;BME280;50118;53.232;8.252;2023-04-07T07:33:15;101638.50;;;12.02;44.47
58243;BME280;50118;53.232;8.252;2023-04-07T07:35:41;101632.41;;;12.21;43.32
58243;BME280;50118;53.232;8.252;2023-04-07T07:38:06;101646.28;;;12.46;43.57
58243;BME280;50118;53.232;8.252;2023-04-07T07:40:32;101651.72;;;12.85;42.22
58243;BME280;50118;53.232;8.252;2023-04-07T07:42:59;101651.63;;;12.46;42.10
58243;BME280;50118;53.232;8.252;2023-04-07T07:45:25;101650.94;;;11.71;47.30
58243;BME280;50118;53.232;8.252;2023-04-07T07:47:50;101651.81;;;12.23;45.70
58243;BME280;50118;53.232;8.252;2023-04-07T07:50:16;101653.84;;;12.41;44.48
58243;BME280;50118;53.232;8.252;2023-04-07T07:52:41;101643.63;;;11.31;45.84
58243;BME280;50118;53.232;8.252;2023-04-07T07:55:07;101656.78;;;11.86;45.41
58243;BME280;50118;53.232;8.252;2023-04-07T07:57:33;101660.03;;;10.60;47.69
58243;BME280;50118;53.232;8.252;2023-04-07T07:59:58;101660.69;;;11.61;47.45
58243;BME280;50118;53.232;8.252;2023-04-07T08:02:23;101663.78;;;11.98;47.34
58243;BME280;50118;53.232;8.252;2023-04-07T08:04:55;101659.69;;;12.25;45.69
58243;BME280;50118;53.232;8.252;2023-04-07T08:07:20;101656.09;;;11.30;49.00
58243;BME280;50118;53.232;8.252;2023-04-07T08:09:46;101657.97;;;11.18;49.80
58243;BME280;50118;53.232;8.252;2023-04-07T08:12:11;101667.03;;;12.02;48.69
58243;BME280;50118;53.232;8.252;2023-04-07T08:14:36;101657.97;;;11.72;47.55
58243;BME280;50118;53.232;8.252;2023-04-07T08:17:02;101672.66;;;11.99;48.48
58243;BME280;50118;53.232;8.252;2023-04-07T08:19:27;101662.47;;;11.39;51.13
58243;BME280;50118;53.232;8.252;2023-04-07T08:21:52;101669.00;;;12.30;48.40
58243;BME280;50118;53.232;8.252;2023-04-07T08:24:18;101659.44;;;11.44;49.40
58243;BME280;50118;53.232;8.252;2023-04-07T08:26:43;101673.97;;;11.18;50.20
58243;BME280;50118;53.232;8.252;2023-04-07T08:29:09;101663.50;;;10.94;51.50
58243;BME280;50118;53.232;8.252;2023-04-07T08:31:35;101679.28;;;12.04;49.69
58243;BME280;50118;53.232;8.252;2023-04-07T08:34:00;101665.13;;;11.71;48.67
58243;BME280;50118;53.232;8.252;2023-04-07T08:36:26;101669.75;;;12.11;50.78
58243;BME280;50118;53.232;8.252;2023-04-07T08:38:52;101675.34;;;11.87;49.44
58243;BME280;50118;53.232;8.252;2023-04-07T08:41:28;101667.81;;;11.71;49.89
58243;BME280;50118;53.232;8.252;2023-04-07T08:43:56;101677.84;;;11.14;52.71
58243;BME280;50118;53.232;8.252;2023-04-07T08:46:24;101664.91;;;12.26;51.10
58243;BME280;50118;53.232;8.252;2023-04-07T08:48:50;101683.34;;;12.29;48.89
58243;BME280;50118;53.232;8.252;2023-04-07T08:51:30;101683.16;;;12.21;49.09
58243;BME280;50118;53.232;8.252;2023-04-07T08:54:08;101683.84;;;11.92;49.10
58243;BME280;50118;53.232;8.252;2023-04-07T08:56:36;101678.38;;;12.56;48.28
58243;BME280;50118;53.232;8.252;2023-04-07T08:59:04;101673.50;;;13.50;45.14
58243;BME280;50118;53.232;8.252;2023-04-07T09:01:31;101675.91;;;12.74;45.33
58243;BME280;50118;53.232;8.252;2023-04-07T09:03:59;101680.50;;;13.22;45.34
58243;BME280;50118;53.232;8.252;2023-04-07T09:06:26;101680.75;;;12.99;43.68
58243;BME280;50118;53.232;8.252;2023-04-07T09:08:52;101674.06;;;13.44;40.22
58243;BME280;50118;53.232;8.252;2023-04-07T09:11:17;101691.53;;;13.68;38.99
58243;BME280;50118;53.232;8.252;2023-04-07T09:13:43;101680.69;;;13.59;39.70
58243;BME280;50118;53.232;8.252;2023-04-07T09:16:08;101686.78;;;12.51;39.54
58243;BME280;50118;53.232;8.252;2023-04-07T09:18:34;101686.09;;;12.99;39.13
58243;BME280;50118;53.232;8.252;2023-04-07T09:21:01;101686.41;;;13.06;38.82
58243;BME280;50118;53.232;8.252;2023-04-07T09:26:18;101692.50;;;12.67;39.97
58243;BME280;50118;53.232;8.252;2023-04-07T09:28:46;101698.97;;;13.44;38.79
58243;BME280;50118;53.232;8.252;2023-04-07T09:31:12;101692.06;;;13.71;38.60
58243;BME280;50118;53.232;8.252;2023-04-07T09:33:37;101691.09;;;12.63;40.76
58243;BME280;50118;53.232;8.252;2023-04-07T09:36:04;101695.13;;;12.27;40.91
58243;BME280;50118;53.232;8.252;2023-04-07T09:38:38;101698.44;;;12.81;39.11
58243;BME280;50118;53.232;8.252;2023-04-07T09:41:15;101691.47;;;12.99;39.60
58243;BME280;50118;53.232;8.252;2023-04-07T09:43:44;101688.56;;;13.41;38.87
58243;BME280;50118;53.232;8.252;2023-04-07T09:46:11;101683.59;;;13.86;38.46
58243;BME280;50118;53.232;8.252;2023-04-07T09:48:38;101692.34;;;13.78;41.22
58243;BME280;50118;53.232;8.252;2023-04-07T09:51:16;101688.97;;;14.33;34.72
58243;BME280;50118;53.232;8.252;2023-04-07T09:53:43;101687.59;;;14.56;34.23
58243;BME280;50118;53.232;8.252;2023-04-07T09:56:09;101695.78;;;12.81;37.03
58243;BME280;50118;53.232;8.252;2023-04-07T09:58:37;101695.66;;;12.92;36.97
58243;BME280;50118;53.232;8.252;2023-04-07T10:01:06;101701.22;;;12.69;37.83
58243;BME280;50118;53.232;8.252;2023-04-07T10:03:33;101705.53;;;13.01;38.09
58243;BME280;50118;53.232;8.252;2023-04-07T10:05:59;101698.84;;;13.36;35.67
58243;BME280;50118;53.232;8.252;2023-04-07T10:08:26;101688.34;;;12.94;35.36
58243;BME280;50118;53.232;8.252;2023-04-07T10:10:51;101683.31;;;13.79;35.96
58243;BME280;50118;53.232;8.252;2023-04-07T10:13:18;101698.28;;;13.33;35.61
58243;BME280;50118;53.232;8.252;2023-04-07T10:15:45;101689.66;;;14.35;34.06
58243;BME280;50118;53.232;8.252;2023-04-07T10:18:12;101691.88;;;14.12;35.34
58243;BME280;50118;53.232;8.252;2023-04-07T10:20:39;101693.81;;;14.57;34.59
58243;BME280;50118;53.232;8.252;2023-04-07T10:23:17;101696.59;;;14.93;33.66
58243;BME280;50118;53.232;8.252;2023-04-07T10:25:44;101699.91;;;14.49;35.63
58243;BME280;50118;53.232;8.252;2023-04-07T10:28:11;101702.94;;;14.27;37.55
58243;BME280;50118;53.232;8.252;2023-04-07T10:30:38;101708.25;;;14.46;35.08
58243;BME280;50118;53.232;8.252;2023-04-07T10:33:04;101702.53;;;14.69;34.82
58243;BME280;50118;53.232;8.252;2023-04-07T10:36:02;101709.69;;;14.41;33.92
58243;BME280;50118;53.232;8.252;2023-04-07T10:38:32;101709.63;;;14.50;35.15
58243;BME280;50118;53.232;8.252;2023-04-07T10:40:58;101710.66;;;13.53;35.17
58243;BME280;50118;53.232;8.252;2023-04-07T10:43:40;101714.00;;;13.26;35.93
58243;BME280;50118;53.232;8.252;2023-04-07T10:46:06;101705.63;;;13.40;35.72
58243;BME280;50118;53.232;8.252;2023-04-07T10:48:32;101697.78;;;14.63;35.02
58243;BME280;50118;53.232;8.252;2023-04-07T10:53:29;101709.53;;;13.95;37.54
58243;BME280;50118;53.232;8.252;2023-04-07T10:55:56;101716.53;;;14.06;34.50
58243;BME280;50118;53.232;8.252;2023-04-07T10:58:27;101712.09;;;13.48;35.52
58243;BME280;50118;53.232;8.252;2023-04-07T11:03:23;101709.34;;;14.53;33.86
58243;BME280;50118;53.232;8.252;2023-04-07T11:05:49;101716.22;;;15.21;33.21
58243;BME280;50118;53.232;8.252;2023-04-07T11:08:15;101711.28;;;15.53;33.32
58243;BME280;50118;53.232;8.252;2023-04-07T11:10:56;101719.47;;;14.97;33.34
58243;BME280;50118;53.232;8.252;2023-04-07T11:13:21;101715.41;;;14.55;32.69
58243;BME280;50118;53.232;8.252;2023-04-07T11:15:49;101719.66;;;14.01;34.34
58243;BME280;50118;53.232;8.252;2023-04-07T11:18:20;101715.72;;;14.05;33.84
58243;BME280;50118;53.232;8.252;2023-04-07T11:20:58;101733.31;;;14.55;33.64
58243;BME280;50118;53.232;8.252;2023-04-07T11:23:24;101719.09;;;14.54;33.67
58243;BME280;50118;53.232;8.252;2023-04-07T11:25:58;101731.09;;;15.16;33.72
58243;BME280;50118;53.232;8.252;2023-04-07T11:28:25;101720.81;;;14.83;32.53
58243;BME280;50118;53.232;8.252;2023-04-07T11:30:52;101720.13;;;15.45;33.99
58243;BME280;50118;53.232;8.252;2023-04-07T11:33:23;101724.44;;;14.92;34.11
58243;BME280;50118;53.232;8.252;2023-04-07T11:35:56;101718.38;;;15.54;33.55
58243;BME280;50118;53.232;8.252;2023-04-07T11:38:25;101710.38;;;15.44;32.35
58243;BME280;50118;53.232;8.252;2023-04-07T11:40:52;101730.78;;;14.63;33.40
58243;BME280;50118;53.232;8.252;2023-04-07T11:43:19;101724.03;;;15.68;33.15
58243;BME280;50118;53.232;8.252;2023-04-07T11:45:46;101725.81;;;15.42;33.49
58243;BME280;50118;53.232;8.252;2023-04-07T11:48:31;101731.94;;;15.88;33.21
58243;BME280;50118;53.232;8.252;2023-04-07T11:50:58;101712.91;;;13.87;35.32
58243;BME280;50118;53.232;8.252;2023-04-07T11:53:32;101716.69;;;14.04;35.04
58243;BME280;50118;53.232;8.252;2023-04-07T11:56:09;101726.84;;;14.10;35.54
58243;BME280;50118;53.232;8.252;2023-04-07T11:58:35;101730.97;;;13.85;37.19
58243;BME280;50118;53.232;8.252;2023-04-07T12:01:02;101735.34;;;13.76;34.25
58243;BME280;50118;53.232;8.252;2023-04-07T12:03:31;101720.09;;;13.77;34.83
58243;BME280;50118;53.232;8.252;2023-04-07T12:05:59;101733.28;;;14.37;35.83
58243;BME280;50118;53.232;8.252;2023-04-07T12:08:38;101747.72;;;14.54;35.54
58243;BME280;50118;53.232;8.252;2023-04-07T12:11:04;101739.28;;;14.86;33.44
58243;BME280;50118;53.232;8.252;2023-04-07T12:13:30;101736.47;;;15.34;32.40
58243;BME280;50118;53.232;8.252;2023-04-07T12:15:59;101727.63;;;15.23;33.80
58243;BME280;50118;53.232;8.252;2023-04-07T12:18:25;101744.44;;;14.98;32.28
58243;BME280;50118;53.232;8.252;2023-04-07T12:20:51;101738.94;;;14.14;35.19
58243;BME280;50118;53.232;8.252;2023-04-07T12:23:16;101736.03;;;13.98;34.91
58243;BME280;50118;53.232;8.252;2023-04-07T12:25:42;101747.25;;;14.31;34.97
58243;BME280;50118;53.232;8.252;2023-04-07T12:28:08;101728.16;;;14.81;34.79
58243;BME280;50118;53.232;8.252;2023-04-07T12:30:33;101733.34;;;14.45;33.90
58243;BME280;50118;53.232;8.252;2023-04-07T12:32:59;101741.19;;;14.29;34.16
58243;BME280;50118;53.232;8.252;2023-04-07T12:35:24;101747.84;;;14.05;35.60
58243;BME280;50118;53.232;8.252;2023-04-07T12:37:50;101745.09;;;14.44;34.80
58243;BME280;50118;53.232;8.252;2023-04-07T12:40:17;101740.59;;;14.82;33.93
58243;BME280;50118;53.232;8.252;2023-04-07T12:42:42;101742.75;;;14.69;33.65
58243;BME280;50118;53.232;8.252;2023-04-07T12:45:08;101740.31;;;15.03;33.69
58243;BME280;50118;53.232;8.252;2023-04-07T12:47:34;101742.03;;;14.19;33.56
58243;BME280;50118;53.232;8.252;2023-04-07T12:49:59;101749.78;;;14.80;33.82
58243;BME280;50118;53.232;8.252;2023-04-07T12:52:26;101749.91;;;15.06;32.79
58243;BME280;50118;53.232;8.252;2023-04-07T12:54:51;101738.50;;;15.04;32.33
58243;BME280;50118;53.232;8.252;2023-04-07T12:57:18;101748.00;;;14.61;32.61
58243;BME280;50118;53.232;8.252;2023-04-07T12:59:43;101742.38;;;14.91;33.38
58243;BME280;50118;53.232;8.252;2023-04-07T13:02:09;101741.63;;;15.45;33.11
58243;BME280;50118;53.232;8.252;2023-04-07T13:04:37;101755.81;;;14.91;35.70